Alberton, Montana
Current Conditions -  °F | °C
As of 1:53 PM on Friday 28 Nov 2014 (Local Time) from KMSO Reporting Station
Overcast Overcast  
Wind Chill: 45°   Ceiling: 4600
Heat Index: 49°   Visibility: 10mi
Dew Point: 36°   Wind: 9mph
Humidity: 61%   Direction: 10°N
Pressure: 29.53"   Gusts: NA
Location:  47°N, 114.47°W
Report Text: KMSO 282053Z 01008KT 10SM OVC046 09/02 A2953 RMK AO2 SLP999 60000 T00940022 58033
Loading
Personal Weather Stations






























Interactive Weather Map New forecast layout! Learn more

10-Day Weather Forecast

Advertisements
Track Severe Weather on mobile